Terminal Aerodrome Forecast
Issued by NWS

Home | Current Version | Previous Version | Text Only | Print | Product List | Glossary On
Versions: 1 2 3 4 5 6 7 8 9 10 11 12 13 14 15 16 17 18 19 20 21 22 23
978
FTUS46 KMFR 240804 AAA
TAFRBG
TAF AMD
KRBG 240804Z 2408/2506 00000KT P6SM OVC007
     FM241600 00000KT P6SM SCT007 BKN060
     FM242000 18003KT P6SM -SHRA BKN040 OVC060=

USA.gov is the U.S. government's official web portal to all federal, state and local government web resources and services.